Time;durP1;ratioP1;P1;durP2;ratioP2;P2;SDS_P1;SDS_P2;PMS_P1;PMS_P2;Temp;Humidity;BMP_temperature;BMP_pressure;BME280_temperature;BME280_humidity;BME280_pressure;Samples;Min_cycle;Max_cycle;Signal;HPM_P1;HPM_P2
2021/06/03 00:01:49;;;;;;;15.32;9.50;;;18.90;99.90;;;;;;6294510;22;20798;-79
2021/06/03 00:04:16;;;;;;;14.88;9.75;;;18.90;99.90;;;;;;6295059;22;20178;-80
2021/06/03 00:06:42;;;;;;;12.35;8.98;;;18.90;99.90;;;;;;6295049;22;20164;-80
2021/06/03 00:09:09;;;;;;;11.80;9.07;;;18.90;99.90;;;;;;6295198;22;20235;-79
2021/06/03 00:11:36;;;;;;;9.68;8.52;;;18.80;99.90;;;;;;6293737;22;20881;-80
2021/06/03 00:14:04;;;;;;;8.88;7.35;;;18.80;99.90;;;;;;6294629;22;20168;-79
2021/06/03 00:16:33;;;;;;;11.15;8.18;;;18.80;99.90;;;;;;6295460;22;20182;-79
2021/06/03 00:19:00;;;;;;;9.93;7.20;;;18.80;99.90;;;;;;6294742;22;20172;-80
2021/06/03 00:21:27;;;;;;;11.40;10.27;;;18.70;99.90;;;;;;6295092;22;20253;-81
2021/06/03 00:23:54;;;;;;;9.98;8.38;;;18.70;99.90;;;;;;6294743;22;20168;-81
2021/06/03 00:26:20;;;;;;;8.65;7.60;;;18.70;99.90;;;;;;6293851;22;20450;-78
2021/06/03 00:28:46;;;;;;;9.15;8.07;;;18.60;99.90;;;;;;6294883;22;20198;-78
2021/06/03 00:31:14;;;;;;;8.30;6.70;;;18.60;99.90;;;;;;6295515;22;20198;-79
2021/06/03 00:33:40;;;;;;;9.38;7.07;;;18.60;99.90;;;;;;6294179;22;20183;-78
2021/06/03 00:36:07;;;;;;;11.68;9.15;;;18.60;99.90;;;;;;6295095;22;20563;-79
2021/06/03 00:38:33;;;;;;;10.25;8.35;;;18.50;99.90;;;;;;6294613;22;20666;-79
2021/06/03 00:41:00;;;;;;;9.40;8.05;;;18.50;99.90;;;;;;6293945;22;20191;-80
2021/06/03 00:43:26;;;;;;;7.53;6.82;;;18.50;99.90;;;;;;6295278;22;20176;-78
2021/06/03 00:45:53;;;;;;;8.23;6.72;;;18.50;99.90;;;;;;6294031;22;20776;-78
2021/06/03 00:48:21;;;;;;;7.35;6.47;;;18.40;99.90;;;;;;6294795;22;20172;-78
2021/06/03 00:50:49;;;;;;;9.07;8.02;;;18.40;99.90;;;;;;6295096;22;20168;-78
2021/06/03 00:53:17;;;;;;;15.95;8.38;;;18.40;99.90;;;;;;6293630;22;20566;-78
2021/06/03 00:55:47;;;;;;;9.95;7.70;;;18.30;99.90;;;;;;6295367;22;20176;-78
2021/06/03 00:58:14;;;;;;;7.90;7.10;;;18.30;99.90;;;;;;6297920;22;20204;-80
2021/06/03 01:00:41;;;;;;;9.00;6.72;;;18.20;99.90;;;;;;6297982;22;20596;-80
2021/06/03 01:03:07;;;;;;;8.70;7.47;;;18.20;99.90;;;;;;6298962;22;20969;-80
2021/06/03 01:05:40;;;;;;;9.63;7.68;;;18.20;99.90;;;;;;6298531;22;20179;-79
2021/06/03 01:08:11;;;;;;;8.68;6.75;;;18.20;99.90;;;;;;6295475;22;20168;-80
2021/06/03 01:10:43;;;;;;;8.30;7.03;;;18.10;99.90;;;;;;6295459;22;20564;-80
2021/06/03 01:13:17;;;;;;;7.25;6.55;;;18.10;99.90;;;;;;6294331;22;20540;-80
2021/06/03 01:15:47;;;;;;;10.82;7.43;;;18.00;99.90;;;;;;6293986;22;20167;-81
2021/06/03 01:18:14;;;;;;;11.38;8.82;;;18.00;99.90;;;;;;6294702;22;20171;-80
2021/06/03 01:20:43;;;;;;;9.30;8.25;;;18.00;99.90;;;;;;6295168;22;20200;-79
2021/06/03 01:23:18;;;;;;;9.23;7.63;;;18.00;99.90;;;;;;6293872;22;20175;-79
2021/06/03 01:25:47;;;;;;;8.85;7.22;;;17.90;99.90;;;;;;6293743;22;20200;-78
2021/06/03 01:28:13;;;;;;;7.45;6.75;;;17.90;99.90;;;;;;6293989;22;20194;-79
2021/06/03 01:30:43;;;;;;;7.32;6.63;;;17.80;99.90;;;;;;6293385;22;20181;-77
2021/06/03 01:33:12;;;;;;;8.75;7.22;;;17.80;99.90;;;;;;6293648;22;20171;-80
2021/06/03 01:35:41;;;;;;;7.45;6.75;;;17.80;99.90;;;;;;6294005;22;20176;-79
2021/06/03 01:38:12;;;;;;;6.88;6.10;;;17.80;99.90;;;;;;6293959;22;20180;-80
2021/06/03 01:40:40;;;;;;;8.20;6.50;;;17.70;99.90;;;;;;6294276;22;20196;-80
2021/06/03 01:43:09;;;;;;;8.13;7.38;;;17.70;99.90;;;;;;6293535;22;20824;-79
2021/06/03 01:45:36;;;;;;;8.05;7.15;;;17.70;99.90;;;;;;6293455;22;20168;-80
2021/06/03 01:48:03;;;;;;;8.65;7.75;;;17.70;99.90;;;;;;6294068;22;20569;-78
2021/06/03 01:50:30;;;;;;;10.50;9.18;;;17.70;99.90;;;;;;6293288;22;20172;-80
2021/06/03 01:52:57;;;;;;;13.27;11.43;;;17.70;99.90;;;;;;6295837;22;20175;-79
2021/06/03 01:55:24;;;;;;;13.45;11.13;;;17.70;99.90;;;;;;6296724;22;20170;-78
2021/06/03 01:57:51;;;;;;;12.23;10.93;;;17.70;99.90;;;;;;6295443;22;20289;-79
2021/06/03 02:00:22;;;;;;;12.30;10.65;;;17.70;99.90;;;;;;6296469;22;20196;-79
2021/06/03 02:02:48;;;;;;;11.15;9.52;;;17.70;99.90;;;;;;6296379;22;20172;-80
2021/06/03 02:05:15;;;;;;;10.27;9.18;;;17.70;99.90;;;;;;6296005;22;20627;-77
2021/06/03 02:07:42;;;;;;;13.57;12.10;;;17.60;99.90;;;;;;6296787;22;20595;-79
2021/06/03 02:10:11;;;;;;;13.18;11.13;;;17.70;99.90;;;;;;6296442;22;20171;-79
2021/06/03 02:12:44;;;;;;;15.40;10.32;;;17.70;99.90;;;;;;6295629;22;20167;-80
2021/06/03 02:15:11;;;;;;;14.13;9.65;;;17.70;99.90;;;;;;6295718;22;20164;-78
2021/06/03 02:17:45;;;;;;;12.00;10.75;;;17.70;99.90;;;;;;6295353;22;20164;-79
2021/06/03 02:20:14;;;;;;;12.75;11.02;;;17.70;99.90;;;;;;6296311;22;20188;-80
2021/06/03 02:22:44;;;;;;;11.93;10.73;;;17.70;99.90;;;;;;6296817;22;20180;-80
2021/06/03 02:25:11;;;;;;;12.93;11.63;;;17.80;99.90;;;;;;6295104;22;20168;-79
2021/06/03 02:27:39;;;;;;;12.68;10.20;;;17.80;99.90;;;;;;6295675;22;20172;-79
2021/06/03 02:30:07;;;;;;;16.42;11.15;;;17.90;99.90;;;;;;6295698;22;20667;-80
2021/06/03 02:32:34;;;;;;;13.13;10.25;;;18.00;99.90;;;;;;6295443;22;20206;-78
2021/06/03 02:35:04;;;;;;;13.80;9.45;;;18.10;99.90;;;;;;6295858;22;20164;-79
2021/06/03 02:37:31;;;;;;;11.90;8.48;;;18.30;99.90;;;;;;6296538;22;20689;-80
2021/06/03 02:40:01;;;;;;;15.20;9.85;;;18.50;99.90;;;;;;6296371;22;20164;-81
2021/06/03 02:42:27;;;;;;;14.07;10.90;;;18.60;99.90;;;;;;6296135;22;20179;-79
2021/06/03 02:44:53;;;;;;;12.85;10.65;;;18.70;99.90;;;;;;6295907;22;20225;-77
2021/06/03 02:47:19;;;;;;;12.90;11.02;;;18.80;99.90;;;;;;6295845;22;20203;-80
2021/06/03 02:49:46;;;;;;;13.02;10.43;;;18.70;99.90;;;;;;6295587;22;20176;-81
2021/06/03 02:52:13;;;;;;;11.45;9.07;;;18.70;99.90;;;;;;6296977;22;20186;-81
2021/06/03 02:54:40;;;;;;;11.35;9.05;;;18.60;99.90;;;;;;6295573;22;20771;-77
2021/06/03 02:57:06;;;;;;;10.88;8.95;;;18.60;99.90;;;;;;6295545;22;20206;-80
2021/06/03 02:59:33;;;;;;;13.38;8.70;;;18.60;99.90;;;;;;6294901;22;20172;-80
2021/06/03 03:02:00;;;;;;;12.73;9.68;;;18.60;99.90;;;;;;6296045;22;20199;-80
2021/06/03 03:04:26;;;;;;;10.40;8.82;;;18.60;99.90;;;;;;6295216;22;20183;-80
2021/06/03 03:06:52;;;;;;;11.18;8.77;;;18.50;99.90;;;;;;6295563;22;20179;-81
2021/06/03 03:09:20;;;;;;;12.98;8.32;;;18.50;99.90;;;;;;6295964;22;20172;-78
2021/06/03 03:11:46;;;;;;;9.70;8.70;;;18.50;99.90;;;;;;6295156;22;20623;-79
2021/06/03 03:14:13;;;;;;;9.60;8.60;;;18.40;99.90;;;;;;6295223;22;20221;-81
2021/06/03 03:16:39;;;;;;;10.50;8.75;;;18.40;99.90;;;;;;6295540;22;20172;-79
2021/06/03 03:19:05;;;;;;;10.10;8.60;;;18.40;99.90;;;;;;6294891;22;20770;-80
2021/06/03 03:21:32;;;;;;;8.35;7.40;;;18.40;99.90;;;;;;6294467;22;20218;-79
2021/06/03 03:23:58;;;;;;;8.65;7.75;;;18.40;99.90;;;;;;6294503;22;20176;-78
2021/06/03 03:26:26;;;;;;;7.57;6.72;;;18.40;99.90;;;;;;6295284;22;20164;-77
2021/06/03 03:28:52;;;;;;;10.30;7.80;;;18.40;99.90;;;;;;6295211;22;20172;-80
2021/06/03 03:31:18;;;;;;;12.15;8.07;;;18.40;99.90;;;;;;6296112;22;20179;-81
2021/06/03 03:33:45;;;;;;;11.20;8.50;;;18.40;99.90;;;;;;6295514;22;20481;-78
2021/06/03 03:36:11;;;;;;;11.50;9.55;;;18.40;99.90;;;;;;6294691;22;20764;-78
2021/06/03 03:38:37;;;;;;;10.15;9.02;;;18.40;99.90;;;;;;6295272;22;20167;-80
2021/06/03 03:41:03;;;;;;;10.20;8.55;;;18.40;99.90;;;;;;6295743;22;20195;-81
2021/06/03 03:43:31;;;;;;;9.15;8.25;;;18.40;99.90;;;;;;6295572;22;20183;-80
2021/06/03 03:45:57;;;;;;;9.75;8.60;;;18.40;99.90;;;;;;6295004;22;20278;-79
2021/06/03 03:48:24;;;;;;;10.70;9.60;;;18.40;99.90;;;;;;6295174;22;20218;-79
2021/06/03 03:50:50;;;;;;;8.98;8.07;;;18.40;99.90;;;;;;6295259;22;20179;-79
2021/06/03 03:53:16;;;;;;;9.82;8.82;;;18.40;99.90;;;;;;6295761;22;20184;-82
2021/06/03 03:55:43;;;;;;;10.43;9.32;;;18.40;99.90;;;;;;6295424;22;20186;-78
2021/06/03 03:58:09;;;;;;;12.93;9.70;;;18.40;99.90;;;;;;6293383;22;20253;-80
2021/06/03 04:00:37;;;;;;;9.68;8.68;;;18.50;99.90;;;;;;6295033;22;20196;-80
2021/06/03 04:03:06;;;;;;;14.85;9.15;;;18.50;99.90;;;;;;6295375;22;20176;-79
2021/06/03 04:05:32;;;;;;;11.45;8.50;;;18.50;99.90;;;;;;6295674;22;20236;-79
2021/06/03 04:07:58;;;;;;;11.25;10.07;;;18.50;99.90;;;;;;6295735;22;20580;-79
2021/06/03 04:10:25;;;;;;;8.88;8.07;;;18.50;99.90;;;;;;6294768;22;20489;-79
2021/06/03 04:12:52;;;;;;;9.68;8.68;;;18.60;99.90;;;;;;6294531;22;20168;-80
2021/06/03 04:15:19;;;;;;;13.75;9.80;;;18.60;99.90;;;;;;6295257;22;20204;-79
2021/06/03 04:17:47;;;;;;;10.70;9.55;;;18.60;99.90;;;;;;6293936;22;20179;-80
2021/06/03 04:20:17;;;;;;;10.85;9.60;;;18.60;99.90;;;;;;6296168;22;20233;-80
2021/06/03 04:22:43;;;;;;;9.07;8.07;;;18.70;99.90;;;;;;6294839;22;20229;-80
2021/06/03 04:25:10;;;;;;;9.48;8.27;;;18.70;99.90;;;;;;6294856;22;20178;-82
2021/06/03 04:27:37;;;;;;;10.30;8.90;;;18.70;99.90;;;;;;6295272;22;20284;-81
2021/06/03 04:30:05;;;;;;;10.77;8.52;;;18.70;99.90;;;;;;6294818;22;20168;-81
2021/06/03 04:32:31;;;;;;;13.27;8.80;;;18.80;99.90;;;;;;6294838;22;20179;-80
2021/06/03 04:34:59;;;;;;;9.93;8.73;;;18.80;99.90;;;;;;6294814;22;20164;-80
2021/06/03 04:37:26;;;;;;;8.32;7.45;;;18.80;99.90;;;;;;6295380;22;20174;-81
2021/06/03 04:39:52;;;;;;;10.32;9.05;;;18.90;99.90;;;;;;6294629;22;20168;-79
2021/06/03 04:42:19;;;;;;;9.27;8.43;;;18.90;99.90;;;;;;6295759;22;20204;-81
2021/06/03 04:44:46;;;;;;;7.80;7.10;;;18.90;99.90;;;;;;6294882;22;20172;-80
2021/06/03 04:47:12;;;;;;;8.32;7.32;;;19.00;99.90;;;;;;6293965;22;20693;-79
2021/06/03 04:49:38;;;;;;;8.70;6.78;;;19.00;99.90;;;;;;6295215;22;20180;-80
2021/06/03 04:52:25;;;;;;;10.50;7.25;;;19.00;99.90;;;;;;6295394;22;20168;-80
2021/06/03 04:54:52;;;;;;;9.80;6.20;;;19.10;99.90;;;;;;6294433;22;20759;-79
2021/06/03 04:57:18;;;;;;;7.32;5.80;;;19.10;99.90;;;;;;6294821;22;20216;-81
2021/06/03 04:59:45;;;;;;;9.15;6.70;;;19.20;99.90;;;;;;6294315;22;20176;-80
2021/06/03 05:02:11;;;;;;;7.13;6.38;;;19.20;99.90;;;;;;6293979;22;20198;-80
2021/06/03 05:04:37;;;;;;;7.78;6.97;;;19.30;99.90;;;;;;6294299;22;20214;-79
2021/06/03 05:07:05;;;;;;;7.00;6.28;;;19.30;99.90;;;;;;6293293;22;20175;-79
2021/06/03 05:09:31;;;;;;;10.20;7.00;;;19.30;99.90;;;;;;6294951;22;20176;-80
2021/06/03 05:11:58;;;;;;;6.28;5.65;;;19.40;99.90;;;;;;6294238;22;20168;-80
2021/06/03 05:14:24;;;;;;;7.78;6.40;;;19.40;99.90;;;;;;6294290;22;20182;-81
2021/06/03 05:16:51;;;;;;;8.45;7.32;;;19.50;99.90;;;;;;6294500;22;20168;-82
2021/06/03 05:19:17;;;;;;;6.85;6.07;;;19.60;99.90;;;;;;6294910;22;20229;-80
2021/06/03 05:21:43;;;;;;;6.85;6.15;;;19.60;99.90;;;;;;6294181;22;20191;-80
2021/06/03 05:24:11;;;;;;;6.80;6.15;;;19.70;99.90;;;;;;6294106;22;20176;-80
2021/06/03 05:26:37;;;;;;;6.88;5.50;;;19.80;99.90;;;;;;6293852;22;20168;-79
2021/06/03 05:29:03;;;;;;;5.95;5.35;;;19.80;99.90;;;;;;6293938;22;20179;-79
2021/06/03 05:31:30;;;;;;;6.82;5.45;;;19.90;99.90;;;;;;6294847;22;20265;-79
2021/06/03 05:33:56;;;;;;;7.43;5.97;;;20.00;99.90;;;;;;6293642;22;20600;-80
2021/06/03 05:36:22;;;;;;;7.13;6.32;;;20.10;99.90;;;;;;6293458;22;20176;-80
2021/06/03 05:38:48;;;;;;;10.80;6.18;;;20.10;99.90;;;;;;6294641;22;20179;-78
2021/06/03 05:41:16;;;;;;;7.30;6.10;;;20.20;99.90;;;;;;6294018;22;20197;-81
2021/06/03 05:43:42;;;;;;;7.53;6.75;;;20.20;99.90;;;;;;6294083;22;20183;-81
2021/06/03 05:46:09;;;;;;;6.78;6.05;;;20.30;99.90;;;;;;6293754;22;20195;-80
2021/06/03 05:48:35;;;;;;;6.90;5.95;;;20.40;99.90;;;;;;6292352;22;20171;-80
2021/06/03 05:51:01;;;;;;;7.72;6.97;;;20.50;99.90;;;;;;6294052;22;20226;-82
2021/06/03 05:53:28;;;;;;;7.57;6.75;;;20.60;99.90;;;;;;6294345;22;20190;-82
2021/06/03 05:55:54;;;;;;;8.25;7.45;;;20.70;99.90;;;;;;6292276;22;20214;-80
2021/06/03 05:58:22;;;;;;;8.18;7.13;;;20.80;99.90;;;;;;6293727;22;20180;-80
2021/06/03 06:00:48;;;;;;;8.80;7.75;;;20.90;99.90;;;;;;6294000;22;20543;-79
2021/06/03 06:03:17;;;;;;;8.38;6.90;;;20.90;99.90;;;;;;6294981;22;20194;-80
2021/06/03 06:08:40;;;;;;;7.97;7.07;;;21.20;99.90;;;;;;6169854;23;20198;-80
2021/06/03 06:11:06;;;;;;;9.40;6.18;;;21.40;99.90;;;;;;6262824;22;20176;-82
2021/06/03 06:13:35;;;;;;;7.70;6.90;;;21.50;99.90;;;;;;6294194;22;20172;-78
2021/06/03 06:16:02;;;;;;;9.02;7.25;;;21.60;99.90;;;;;;6293750;22;20226;-80
2021/06/03 06:18:28;;;;;;;8.18;7.38;;;21.70;99.90;;;;;;6291988;22;20207;-78
2021/06/03 06:20:54;;;;;;;8.70;7.25;;;21.70;99.90;;;;;;6293081;22;20199;-79
2021/06/03 06:23:21;;;;;;;8.70;6.32;;;21.80;99.90;;;;;;6293195;22;20176;-78
2021/06/03 06:25:47;;;;;;;10.27;7.85;;;21.90;99.90;;;;;;6292750;22;20241;-78
2021/06/03 06:28:16;;;;;;;9.50;8.13;;;22.00;99.90;;;;;;6293443;22;20172;-80
2021/06/03 06:30:44;;;;;;;9.15;8.25;;;22.10;99.90;;;;;;6293327;22;20169;-78
2021/06/03 06:33:10;;;;;;;7.82;6.93;;;22.20;99.90;;;;;;6292726;22;20182;-80
2021/06/03 06:35:37;;;;;;;9.80;6.18;;;22.40;99.90;;;;;;6292774;22;20573;-80
2021/06/03 06:38:04;;;;;;;7.68;6.57;;;22.50;99.90;;;;;;6292366;22;20487;-81
2021/06/03 06:40:31;;;;;;;10.20;5.97;;;22.60;99.90;;;;;;6295412;22;20231;-79
2021/06/03 06:42:57;;;;;;;10.27;7.85;;;22.70;99.90;;;;;;6294796;22;20265;-77
2021/06/03 06:45:26;;;;;;;8.38;6.78;;;22.70;99.90;;;;;;6294215;22;20206;-78
2021/06/03 06:47:54;;;;;;;7.90;6.32;;;22.70;99.90;;;;;;6294623;22;20192;-78
2021/06/03 06:51:08;;;;;;;8.00;5.57;;;22.70;99.90;;;;;;6250203;22;20172;-81
2021/06/03 06:53:34;;;;;;;6.97;5.57;;;22.70;99.90;;;;;;6295004;22;20198;-77
2021/06/03 06:56:01;;;;;;;9.20;6.05;;;22.70;99.90;;;;;;6292700;22;20207;-78
2021/06/03 06:58:27;;;;;;;6.03;5.40;;;22.70;99.90;;;;;;6295529;22;20168;-78
2021/06/03 07:00:53;;;;;;;8.05;6.38;;;22.70;99.90;;;;;;6294728;22;20206;-79
2021/06/03 07:03:21;;;;;;;7.75;6.50;;;22.60;99.90;;;;;;6295275;22;20572;-77
2021/06/03 07:05:48;;;;;;;7.30;6.55;;;22.70;99.90;;;;;;6293938;22;20179;-79
2021/06/03 07:08:15;;;;;;;11.05;6.72;;;22.70;99.90;;;;;;6285745;22;20172;-78
2021/06/03 07:10:41;;;;;;;9.25;7.47;;;22.80;99.90;;;;;;6295626;22;20198;-79
2021/06/03 07:13:08;;;;;;;6.82;6.13;;;22.90;99.90;;;;;;6293897;22;20661;-78
2021/06/03 07:15:37;;;;;;;6.63;5.97;;;22.90;99.90;;;;;;6294185;22;20435;-78
2021/06/03 07:18:03;;;;;;;10.57;6.45;;;23.10;99.90;;;;;;6295508;22;20870;-78
2021/06/03 07:20:31;;;;;;;12.10;6.57;;;23.50;99.90;;;;;;6292121;22;20176;-79
2021/06/03 07:23:03;;;;;;;7.63;6.65;;;24.10;99.90;;;;;;6295321;22;20612;-79
2021/06/03 07:25:30;;;;;;;13.60;7.50;;;24.70;99.90;;;;;;6293233;22;20290;-79
2021/06/03 07:27:57;;;;;;;17.70;9.13;;;25.20;99.90;;;;;;6294891;22;20172;-80
2021/06/03 07:30:25;;;;;;;8.98;6.35;;;25.70;99.90;;;;;;6294987;22;20890;-81
2021/06/03 07:32:52;;;;;;;7.78;5.78;;;26.00;99.90;;;;;;6293946;22;20168;-79
2021/06/03 07:35:20;;;;;;;8.60;7.70;;;26.30;99.90;;;;;;6294388;22;20259;-79
2021/06/03 07:37:49;;;;;;;10.25;7.57;;;26.60;99.90;;;;;;6294860;22;20291;-80
2021/06/03 07:40:17;;;;;;;7.18;6.07;;;26.70;99.90;;;;;;6295185;22;20179;-81
2021/06/03 07:42:43;;;;;;;8.38;7.53;;;26.80;99.90;;;;;;6294510;22;20499;-79
2021/06/03 07:45:12;;;;;;;10.20;8.95;;;26.60;99.90;;;;;;6294501;22;20172;-83
2021/06/03 07:47:41;;;;;;;11.52;9.63;;;26.20;99.90;;;;;;6296264;22;20680;-81
2021/06/03 07:50:09;;;;;;;12.63;9.90;;;26.00;99.90;;;;;;6294552;22;20176;-81
2021/06/03 07:52:36;;;;;;;12.57;11.23;;;25.90;99.90;;;;;;6295109;22;20168;-81
2021/06/03 07:55:07;;;;;;;11.45;9.63;;;25.90;99.90;;;;;;6294615;22;20171;-78
2021/06/03 07:57:33;;;;;;;18.50;14.23;;;26.00;99.90;;;;;;6295527;22;20208;-81
2021/06/03 08:00:00;;;;;;;12.93;11.68;;;25.80;99.90;;;;;;6294269;22;20176;-81
2021/06/03 08:02:26;;;;;;;12.10;10.73;;;25.80;99.90;;;;;;6294813;22;20434;-81
2021/06/03 08:04:53;;;;;;;14.50;12.25;;;25.40;99.90;;;;;;6294947;22;20620;-82
2021/06/03 08:07:19;;;;;;;11.95;10.73;;;25.40;99.90;;;;;;6296753;22;20172;-79
2021/06/03 08:09:45;;;;;;;12.85;11.13;;;25.10;99.90;;;;;;6295395;22;20761;-79
2021/06/03 08:12:14;;;;;;;10.90;9.82;;;25.20;99.90;;;;;;6296097;22;20583;-81
2021/06/03 08:14:40;;;;;;;12.32;10.50;;;25.60;99.90;;;;;;6295514;22;20171;-79
2021/06/03 08:17:07;;;;;;;12.93;9.90;;;25.80;99.90;;;;;;6268016;22;20171;-80
2021/06/03 08:19:33;;;;;;;14.95;10.98;;;26.00;99.90;;;;;;6296297;22;20178;-81
2021/06/03 08:22:00;;;;;;;15.27;12.32;;;26.00;99.90;;;;;;6295956;22;20766;-84
2021/06/03 08:24:26;;;;;;;14.32;11.73;;;25.90;99.90;;;;;;6294491;22;20172;-84
2021/06/03 08:26:53;;;;;;;13.98;11.40;;;25.80;99.90;;;;;;6295695;22;20266;-78
2021/06/03 08:29:22;;;;;;;12.20;9.98;;;25.70;99.90;;;;;;6296741;22;20194;-79
2021/06/03 08:31:49;;;;;;;13.00;11.65;;;25.60;99.90;;;;;;6295551;22;20168;-81
2021/06/03 08:34:16;;;;;;;13.70;11.50;;;25.60;99.90;;;;;;6296069;22;20179;-81
2021/06/03 08:36:42;;;;;;;16.45;12.25;;;25.70;99.90;;;;;;6295899;22;20850;-82
2021/06/03 08:39:09;;;;;;;13.90;11.18;;;26.00;99.90;;;;;;6295672;22;20176;-80
2021/06/03 08:41:38;;;;;;;14.23;10.82;;;26.30;99.90;;;;;;6295476;22;20611;-82
2021/06/03 08:44:07;;;;;;;14.13;11.60;;;26.20;99.90;;;;;;6297177;22;20172;-82
2021/06/03 08:46:36;;;;;;;11.57;10.48;;;26.30;99.90;;;;;;6295949;22;20195;-79
2021/06/03 08:49:05;;;;;;;12.75;11.43;;;26.30;99.90;;;;;;6295978;22;20718;-78
2021/06/03 08:51:32;;;;;;;12.43;10.23;;;26.10;99.90;;;;;;6294573;22;20171;-81
2021/06/03 08:53:58;;;;;;;14.98;12.45;;;26.00;99.90;;;;;;6296036;22;20187;-80
2021/06/03 08:56:25;;;;;;;12.90;11.65;;;26.00;99.90;;;;;;6294936;22;20282;-79
2021/06/03 08:58:55;;;;;;;19.65;15.07;;;25.90;99.90;;;;;;6296062;22;20176;-79
2021/06/03 09:01:22;;;;;;;17.45;15.20;;;25.90;99.90;;;;;;6295933;22;20187;-84
2021/06/03 09:03:50;;;;;;;15.88;14.25;;;26.10;99.90;;;;;;6297460;22;20172;-82
2021/06/03 09:06:18;;;;;;;19.23;15.23;;;26.10;99.90;;;;;;6294906;22;20168;-80
2021/06/03 09:08:49;;;;;;;16.85;14.45;;;26.00;99.90;;;;;;6295438;22;20484;-79
2021/06/03 09:11:19;;;;;;;14.98;12.77;;;25.80;99.90;;;;;;6296789;22;20165;-83
2021/06/03 09:13:50;;;;;;;14.93;13.07;;;25.70;99.90;;;;;;6294994;22;20164;-79
2021/06/03 09:16:19;;;;;;;16.58;14.68;;;25.70;99.90;;;;;;6295143;22;20172;-80
2021/06/03 09:18:48;;;;;;;20.48;15.18;;;25.60;99.90;;;;;;6296887;22;20179;-84
2021/06/03 09:21:17;;;;;;;17.17;15.43;;;25.40;99.90;;;;;;6296211;22;20191;-83
2021/06/03 09:23:46;;;;;;;16.38;13.90;;;25.10;99.90;;;;;;6297221;22;20176;-85
2021/06/03 09:26:13;;;;;;;20.25;17.65;;;24.90;99.90;;;;;;6295427;22;20731;-82
2021/06/03 09:28:41;;;;;;;16.08;14.40;;;24.70;99.90;;;;;;6295616;22;20897;-80
2021/06/03 09:31:13;;;;;;;19.92;17.77;;;24.80;99.90;;;;;;6294937;22;20213;-82
2021/06/03 09:34:01;;;;;;;20.80;16.42;;;25.20;99.90;;;;;;6296122;22;20168;-80
2021/06/03 09:36:32;;;;;;;16.45;14.20;;;25.60;99.90;;;;;;6296018;22;20175;-84
2021/06/03 09:39:11;;;;;;;15.55;13.65;;;26.00;99.90;;;;;;6297653;22;20218;-82
2021/06/03 09:41:40;;;;;;;16.33;14.63;;;26.30;99.90;;;;;;6296456;22;20195;-85
2021/06/03 09:44:10;;;;;;;16.45;13.98;;;26.80;99.90;;;;;;6296188;22;20167;-83
2021/06/03 09:46:43;;;;;;;20.35;16.70;;;27.20;99.90;;;;;;6297170;22;20196;-80
2021/06/03 09:49:18;;;;;;;16.20;14.25;;;27.50;99.90;;;;;;6296209;22;20172;-82
2021/06/03 09:51:47;;;;;;;16.17;14.30;;;27.60;99.90;;;;;;6297652;22;20163;-81
2021/06/03 09:54:15;;;;;;;16.98;15.00;;;27.60;99.90;;;;;;6295901;22;20164;-79
2021/06/03 09:56:43;;;;;;;18.73;15.30;;;27.50;99.90;;;;;;6295381;22;20475;-82
2021/06/03 09:59:16;;;;;;;19.65;16.60;;;27.70;99.90;;;;;;6296179;22;20176;-85
2021/06/03 10:01:56;;;;;;;18.33;16.13;;;27.80;99.90;;;;;;6295526;22;20188;-82
2021/06/03 10:04:26;;;;;;;14.93;13.35;;;27.90;99.90;;;;;;6296113;22;20175;-83
2021/06/03 10:07:02;;;;;;;13.27;11.98;;;28.10;99.90;;;;;;6293817;22;20175;-83
2021/06/03 10:09:44;;;;;;;14.90;13.40;;;28.50;99.90;;;;;;6296360;22;20248;-82
2021/06/03 10:12:11;;;;;;;16.27;14.27;;;28.70;99.90;;;;;;6297093;22;20243;-82
2021/06/03 10:14:38;;;;;;;19.75;16.42;;;28.90;99.90;;;;;;6299606;22;20183;-85
2021/06/03 10:17:14;;;;;;;15.13;13.55;;;28.90;99.90;;;;;;6298305;22;20294;-86
2021/06/03 10:19:41;;;;;;;20.80;14.60;;;28.90;99.90;;;;;;6299165;22;20461;-81
2021/06/03 10:22:17;;;;;;;14.55;12.27;;;28.70;99.90;;;;;;6298200;22;20199;-81
2021/06/03 10:25:05;;;;;;;17.05;13.57;;;28.60;99.90;;;;;;6298496;22;20667;-83
2021/06/03 10:27:33;;;;;;;19.13;14.32;;;28.40;99.90;;;;;;6299101;22;20195;-83
2021/06/03 10:30:02;;;;;;;14.30;12.65;;;28.20;99.90;;;;;;6297154;22;20164;-82
2021/06/03 10:32:31;;;;;;;16.70;13.05;;;28.20;99.90;;;;;;6298348;22;20260;-84
2021/06/03 10:34:58;;;;;;;16.98;14.68;;;28.30;99.90;;;;;;6296756;22;20172;-80
2021/06/03 10:37:27;;;;;;;17.08;15.05;;;28.40;99.90;;;;;;6297187;22;20279;-80
2021/06/03 10:39:55;;;;;;;18.35;14.50;;;28.40;99.90;;;;;;6298607;22;20172;-82
2021/06/03 10:42:23;;;;;;;13.88;12.40;;;28.40;99.90;;;;;;6298687;22;20196;-79
2021/06/03 10:44:50;;;;;;;19.42;13.95;;;28.40;99.90;;;;;;6298567;22;20164;-80
2021/06/03 10:47:17;;;;;;;15.65;13.15;;;28.20;99.90;;;;;;6301314;22;20207;-81
2021/06/03 10:49:44;;;;;;;16.02;13.40;;;28.20;99.90;;;;;;6299375;22;20437;-80
2021/06/03 10:52:12;;;;;;;17.15;15.13;;;28.10;99.90;;;;;;6299631;22;20178;-84
2021/06/03 10:54:52;;;;;;;19.50;15.10;;;28.10;99.90;;;;;;6301458;22;20172;-82
2021/06/03 10:57:22;;;;;;;18.08;13.38;;;28.20;99.90;;;;;;6307503;22;20219;-78
2021/06/03 10:59:52;;;;;;;19.73;15.55;;;28.20;99.90;;;;;;6310756;22;20168;-85
2021/06/03 11:02:19;;;;;;;17.40;15.05;;;28.10;99.90;;;;;;6305685;22;20287;-78
2021/06/03 11:04:46;;;;;;;18.25;15.55;;;28.10;99.90;;;;;;6300621;22;20175;-81
2021/06/03 11:07:14;;;;;;;15.20;13.60;;;28.10;99.90;;;;;;6302246;22;20172;-78
2021/06/03 11:09:45;;;;;;;19.35;17.25;;;28.20;99.90;;;;;;6298264;22;20199;-77
2021/06/03 11:12:18;;;;;;;21.30;17.75;;;28.10;99.90;;;;;;6298107;22;20169;-79
2021/06/03 11:15:08;;;;;;;19.73;16.88;;;28.00;99.90;;;;;;6298117;22;20168;-78
2021/06/03 11:17:52;;;;;;;23.75;17.27;;;28.10;99.90;;;;;;6296042;22;20164;-81
2021/06/03 11:20:39;;;;;;;18.90;17.00;;;28.10;99.90;;;;;;6296127;22;20431;-81
2021/06/03 11:23:42;;;;;;;16.38;14.43;;;28.00;99.90;;;;;;6296826;22;20188;-82
2021/06/03 11:26:31;;;;;;;18.23;16.13;;;27.90;99.90;;;;;;6294817;22;20180;-81
2021/06/03 11:29:10;;;;;;;24.27;19.60;;;27.90;99.90;;;;;;6295484;22;20175;-79
2021/06/03 11:31:39;;;;;;;19.20;16.83;;;27.80;99.90;;;;;;6295841;22;20220;-79
2021/06/03 11:34:07;;;;;;;19.88;16.95;;;27.90;99.90;;;;;;6294982;22;20179;-81
2021/06/03 11:36:34;;;;;;;19.08;15.57;;;28.10;99.90;;;;;;6295297;22;20233;-82
2021/06/03 11:39:03;;;;;;;19.20;14.38;;;28.10;99.90;;;;;;6295609;22;20572;-81
2021/06/03 11:41:37;;;;;;;19.92;17.67;;;28.30;99.90;;;;;;6296168;22;20217;-83
2021/06/03 11:44:08;;;;;;;19.65;16.55;;;28.60;99.90;;;;;;6296435;22;20168;-82
2021/06/03 11:47:01;;;;;;;20.48;16.83;;;28.60;99.90;;;;;;6296321;22;20199;-81
2021/06/03 11:49:35;;;;;;;20.15;17.98;;;28.80;99.90;;;;;;6296911;22;20315;-82
2021/06/03 11:52:12;;;;;;;20.27;17.77;;;28.80;99.90;;;;;;6296285;22;20251;-82
2021/06/03 11:54:56;;;;;;;20.70;18.33;;;28.70;99.90;;;;;;6296063;22;20180;-83
2021/06/03 11:57:25;;;;;;;21.48;17.45;;;28.70;99.90;;;;;;6295605;22;20206;-78
2021/06/03 11:59:59;;;;;;;23.80;19.25;;;28.70;99.90;;;;;;6296322;22;20172;-80
2021/06/03 12:02:34;;;;;;;23.92;20.25;;;28.70;99.90;;;;;;6295004;22;20218;-77
2021/06/03 12:05:17;;;;;;;22.67;18.23;;;28.70;99.90;;;;;;6294636;22;20209;-78
2021/06/03 12:07:45;;;;;;;21.20;17.05;;;28.80;99.90;;;;;;6294043;22;20164;-81
2021/06/03 12:10:13;;;;;;;26.73;19.33;;;28.70;99.90;;;;;;6293969;22;20168;-77
2021/06/03 12:12:42;;;;;;;25.52;20.08;;;28.80;99.90;;;;;;6294819;22;20172;-78
2021/06/03 12:15:27;;;;;;;25.08;20.17;;;28.90;99.90;;;;;;6295350;22;20176;-80
2021/06/03 12:17:55;;;;;;;24.17;20.48;;;28.90;99.90;;;;;;6295216;22;20168;-76
2021/06/03 12:20:21;;;;;;;25.95;19.60;;;28.90;99.90;;;;;;6294955;22;20869;-80
2021/06/03 12:22:48;;;;;;;24.65;21.00;;;28.90;99.90;;;;;;6294055;22;20192;-77
2021/06/03 12:25:15;;;;;;;23.90;19.45;;;28.90;99.90;;;;;;6295545;22;20178;-79
2021/06/03 12:27:45;;;;;;;26.85;20.15;;;28.70;99.90;;;;;;6294721;22;20172;-79
2021/06/03 12:30:15;;;;;;;30.65;21.88;;;28.90;99.90;;;;;;6292386;22;20179;-78
2021/06/03 12:32:42;;;;;;;26.17;20.83;;;28.90;99.90;;;;;;6293827;22;20549;-79
2021/06/03 12:35:09;;;;;;;19.92;16.75;;;28.90;99.90;;;;;;6294393;22;20183;-78
2021/06/03 12:37:37;;;;;;;20.85;17.70;;;29.00;99.90;;;;;;6293328;22;20167;-80
2021/06/03 12:40:07;;;;;;;18.85;16.83;;;29.10;99.90;;;;;;6293528;22;20168;-79
2021/06/03 12:42:33;;;;;;;19.92;17.02;;;29.10;99.90;;;;;;6294584;22;20199;-79
2021/06/03 12:45:04;;;;;;;23.73;19.23;;;29.00;99.90;;;;;;6293249;22;20179;-80
2021/06/03 12:47:33;;;;;;;21.60;16.83;;;29.00;99.90;;;;;;6294980;22;20192;-76